Time;durP1;ratioP1;P1;durP2;ratioP2;P2;SDS_P1;SDS_P2;PMS_P1;PMS_P2;Temp;Humidity;BMP_temperature;BMP_pressure;BME280_temperature;BME280_humidity;BME280_pressure;Samples;Min_cycle;Max_cycle;Signal;HPM_P1;HPM_P2
2021/06/26 00:01:38;;;;;;;268.40;244.32;;;;;;;;;;4414294;32;20177;-84
2021/06/26 00:04:07;;;;;;;256.10;233.05;;;;;;;;;;4416836;32;20055;-84
2021/06/26 00:06:35;;;;;;;262.77;239.10;;;;;;;;;;4409345;32;20548;-84
2021/06/26 00:09:04;;;;;;;225.05;205.65;;;;;;;;;;4409759;32;20117;-84
2021/06/26 00:11:33;;;;;;;232.60;212.95;;;;;;;;;;4412258;32;20148;-85
2021/06/26 00:14:01;;;;;;;223.62;205.15;;;;;;;;;;4411869;32;20097;-84
2021/06/26 00:16:30;;;;;;;224.32;205.95;;;;;;;;;;4412266;32;20109;-85
2021/06/26 00:18:59;;;;;;;227.98;209.32;;;;;;;;;;4408224;32;20113;-84
2021/06/26 00:21:27;;;;;;;247.93;226.40;;;;;;;;;;4411962;32;20062;-85
2021/06/26 00:23:56;;;;;;;249.73;227.57;;;;;;;;;;4416823;32;20076;-85
2021/06/26 00:26:26;;;;;;;210.85;191.25;;;;;;;;;;4412533;32;20094;-84
2021/06/26 00:29:02;;;;;;;193.62;176.68;;;;;;;;;;4413625;32;20211;-84
2021/06/26 00:31:31;;;;;;;209.20;191.68;;;;;;;;;;4412878;32;20557;-84
2021/06/26 00:34:00;;;;;;;194.37;177.12;;;;;;;;;;4413091;32;20042;-85
2021/06/26 00:36:28;;;;;;;207.57;189.85;;;;;;;;;;4414809;32;20507;-84
2021/06/26 00:38:57;;;;;;;220.35;202.27;;;;;;;;;;4411603;32;20054;-83
2021/06/26 00:41:26;;;;;;;232.68;213.82;;;;;;;;;;4412654;32;20049;-85
2021/06/26 00:44:01;;;;;;;254.35;231.98;;;;;;;;;;4415115;32;20462;-84
2021/06/26 00:46:30;;;;;;;245.80;223.27;;;;;;;;;;4412245;32;20117;-85
2021/06/26 00:48:59;;;;;;;220.40;199.55;;;;;;;;;;4412242;32;20103;-84
2021/06/26 00:51:27;;;;;;;215.10;194.57;;;;;;;;;;4414363;32;20106;-84
2021/06/26 00:54:01;;;;;;;216.52;198.15;;;;;;;;;;4414865;32;20084;-85
2021/06/26 00:56:29;;;;;;;194.30;177.05;;;;;;;;;;4413696;32;20077;-85
2021/06/26 00:59:11;;;;;;;221.82;200.93;;;;;;;;;;4410365;32;22166;-85
2021/06/26 01:01:40;;;;;;;206.50;189.00;;;;;;;;;;4414426;32;20081;-85
2021/06/26 01:04:09;;;;;;;213.40;195.65;;;;;;;;;;4411262;32;20135;-85
2021/06/26 01:06:37;;;;;;;224.25;204.38;;;;;;;;;;4407455;32;20113;-85
2021/06/26 01:09:06;;;;;;;200.48;181.95;;;;;;;;;;4411444;32;20046;-84
2021/06/26 01:11:35;;;;;;;209.12;189.20;;;;;;;;;;4412504;32;20514;-85
2021/06/26 01:14:04;;;;;;;203.37;186.43;;;;;;;;;;4410674;32;20097;-84
2021/06/26 01:16:33;;;;;;;210.43;193.13;;;;;;;;;;4409906;32;20089;-84
2021/06/26 01:19:01;;;;;;;195.30;178.57;;;;;;;;;;4411709;32;20396;-84
2021/06/26 01:21:30;;;;;;;205.30;187.95;;;;;;;;;;4411868;32;20176;-84
2021/06/26 01:23:58;;;;;;;208.87;191.45;;;;;;;;;;4411751;32;20107;-85
2021/06/26 01:26:31;;;;;;;205.87;188.68;;;;;;;;;;4409458;32;20098;-85
2021/06/26 01:29:00;;;;;;;210.52;190.25;;;;;;;;;;4411805;32;20105;-85
2021/06/26 01:31:29;;;;;;;239.63;217.62;;;;;;;;;;4412626;32;20053;-84
2021/06/26 01:33:57;;;;;;;222.80;201.68;;;;;;;;;;4412608;32;20047;-84
2021/06/26 01:36:26;;;;;;;203.85;183.60;;;;;;;;;;4407843;32;20168;-84
2021/06/26 01:38:58;;;;;;;224.05;204.63;;;;;;;;;;4413043;32;20446;-84
2021/06/26 01:41:35;;;;;;;206.55;189.87;;;;;;;;;;4411918;32;20093;-85
2021/06/26 01:44:03;;;;;;;185.77;170.05;;;;;;;;;;4413912;32;20085;-84
2021/06/26 01:46:33;;;;;;;227.70;209.60;;;;;;;;;;4408727;32;20106;-85
2021/06/26 01:49:14;;;;;;;193.73;177.43;;;;;;;;;;4414295;32;20112;-85
2021/06/26 01:51:43;;;;;;;187.90;171.68;;;;;;;;;;4412997;32;20443;-84
2021/06/26 01:54:12;;;;;;;226.12;205.18;;;;;;;;;;4411825;32;20720;-84
2021/06/26 01:56:41;;;;;;;177.75;161.45;;;;;;;;;;4406121;32;20183;-84
2021/06/26 01:59:10;;;;;;;172.15;155.90;;;;;;;;;;4410380;32;20155;-84
2021/06/26 02:01:38;;;;;;;176.02;159.60;;;;;;;;;;4409813;32;20097;-84
2021/06/26 02:04:07;;;;;;;201.68;184.27;;;;;;;;;;4407595;32;20495;-84
2021/06/26 02:06:36;;;;;;;194.25;177.85;;;;;;;;;;4410972;32;21168;-85
2021/06/26 02:09:07;;;;;;;192.73;175.45;;;;;;;;;;4414333;32;20736;-84
2021/06/26 02:11:36;;;;;;;220.35;201.93;;;;;;;;;;4411803;32;20050;-84
2021/06/26 02:14:04;;;;;;;238.35;218.48;;;;;;;;;;4412799;32;20080;-84
2021/06/26 02:16:33;;;;;;;229.45;210.82;;;;;;;;;;4412555;32;20112;-84
2021/06/26 02:19:02;;;;;;;227.50;207.05;;;;;;;;;;4412589;32;20416;-84
2021/06/26 02:21:31;;;;;;;243.40;222.65;;;;;;;;;;4407942;32;20471;-84
2021/06/26 02:23:59;;;;;;;222.77;204.55;;;;;;;;;;4409195;32;20480;-85
2021/06/26 02:26:28;;;;;;;224.18;205.50;;;;;;;;;;4411141;32;20161;-84
2021/06/26 02:28:56;;;;;;;261.00;240.82;;;;;;;;;;4413189;32;20054;-84
2021/06/26 02:31:25;;;;;;;216.25;198.13;;;;;;;;;;4408887;32;20080;-85
2021/06/26 02:33:54;;;;;;;230.65;209.48;;;;;;;;;;4413876;32;20043;-84
2021/06/26 02:36:22;;;;;;;227.87;206.63;;;;;;;;;;4415310;32;20417;-84
2021/06/26 02:38:52;;;;;;;208.82;191.02;;;;;;;;;;4414373;32;20125;-84
2021/06/26 02:41:22;;;;;;;220.07;202.00;;;;;;;;;;4414466;32;20495;-85
2021/06/26 02:43:50;;;;;;;214.05;196.15;;;;;;;;;;4415098;32;20098;-84
2021/06/26 02:46:19;;;;;;;221.62;203.75;;;;;;;;;;4414615;32;20603;-84
2021/06/26 02:48:48;;;;;;;229.07;210.65;;;;;;;;;;4412741;32;20201;-84
2021/06/26 02:51:16;;;;;;;204.57;186.85;;;;;;;;;;4410804;32;20439;-84
2021/06/26 02:53:44;;;;;;;197.35;180.07;;;;;;;;;;4413743;32;20105;-85
2021/06/26 02:56:13;;;;;;;215.07;197.15;;;;;;;;;;4413436;32;20121;-85
2021/06/26 02:58:42;;;;;;;203.43;184.07;;;;;;;;;;4415432;32;20580;-84
2021/06/26 03:01:10;;;;;;;216.60;197.52;;;;;;;;;;4411870;32;20069;-84
2021/06/26 03:03:39;;;;;;;208.02;190.90;;;;;;;;;;4416546;32;20081;-85
2021/06/26 03:06:07;;;;;;;201.93;184.85;;;;;;;;;;4414238;32;20106;-84
2021/06/26 03:08:36;;;;;;;208.25;189.25;;;;;;;;;;4415173;32;20098;-84
2021/06/26 03:18:33;;;;;;;261.10;238.27;;;;;;;;;;4330144;32;20102;-96
2021/06/26 03:21:56;;;;;;;199.38;182.45;;;;;;;;;;4297269;33;20048;-94
2021/06/26 03:32:58;;;;;;;234.52;213.23;;;;;;;;;;4184750;34;20107;-96
2021/06/26 03:35:58;;;;;;;226.43;205.90;;;;;;;;;;4189845;33;20082;-94
2021/06/26 03:47:31;;;;;;;197.40;181.30;;;;;;;;;;4192677;34;20110;-94
2021/06/26 03:51:03;;;;;;;209.57;189.98;;;;;;;;;;4203816;34;20059;-96
2021/06/26 03:54:24;;;;;;;219.87;202.00;;;;;;;;;;4310803;33;20511;-92
2021/06/26 05:25:18;;;;;;;188.95;173.35;;;;;;;;;;5275234;26;20056;-82
2021/06/26 05:27:47;;;;;;;231.82;211.30;;;;;;;;;;5293679;27;20040;-83
2021/06/26 05:30:16;;;;;;;216.93;197.15;;;;;;;;;;5292863;27;20052;-83
2021/06/26 05:32:44;;;;;;;200.43;182.65;;;;;;;;;;5290186;27;20036;-81
2021/06/26 05:35:13;;;;;;;194.90;178.82;;;;;;;;;;5293498;27;20024;-83
2021/06/26 05:37:43;;;;;;;199.82;183.82;;;;;;;;;;5287538;27;20820;-83
2021/06/26 05:40:11;;;;;;;210.88;194.00;;;;;;;;;;5283159;27;20025;-82
2021/06/26 05:42:40;;;;;;;188.60;173.80;;;;;;;;;;5283343;27;20033;-83
2021/06/26 05:45:09;;;;;;;186.55;171.32;;;;;;;;;;5262302;27;20044;-84
2021/06/26 05:47:37;;;;;;;201.37;181.87;;;;;;;;;;5287318;27;20048;-83
2021/06/26 05:50:06;;;;;;;206.68;186.82;;;;;;;;;;5284575;27;20052;-83
2021/06/26 05:52:44;;;;;;;177.85;162.23;;;;;;;;;;5288139;27;20132;-83
2021/06/26 05:55:13;;;;;;;215.93;198.62;;;;;;;;;;5285136;27;20119;-83
2021/06/26 05:57:42;;;;;;;198.80;182.43;;;;;;;;;;5283521;27;20061;-83
2021/06/26 06:00:11;;;;;;;223.20;205.87;;;;;;;;;;5285607;27;20479;-83
2021/06/26 06:02:40;;;;;;;191.20;175.43;;;;;;;;;;5285722;27;20066;-83
2021/06/26 06:05:09;;;;;;;224.75;206.80;;;;;;;;;;5284617;27;20171;-83
2021/06/26 06:07:38;;;;;;;187.65;171.32;;;;;;;;;;5268463;27;20040;-84
2021/06/26 06:10:07;;;;;;;215.98;198.55;;;;;;;;;;5292331;27;20030;-84
2021/06/26 06:12:36;;;;;;;218.85;198.82;;;;;;;;;;5289028;27;20044;-83
2021/06/26 06:15:07;;;;;;;238.98;219.20;;;;;;;;;;5283198;27;20077;-83
2021/06/26 06:17:36;;;;;;;239.00;219.10;;;;;;;;;;5285455;27;20452;-83
2021/06/26 06:20:06;;;;;;;223.52;203.88;;;;;;;;;;5286108;27;20049;-83
2021/06/26 06:22:35;;;;;;;229.57;209.52;;;;;;;;;;5283601;27;20028;-83
2021/06/26 06:25:06;;;;;;;222.65;204.98;;;;;;;;;;5283274;27;20036;-83
2021/06/26 06:27:36;;;;;;;241.85;220.23;;;;;;;;;;5267521;27;20032;-83
2021/06/26 06:30:05;;;;;;;249.15;227.77;;;;;;;;;;5261664;27;20056;-83
2021/06/26 06:32:34;;;;;;;243.95;222.52;;;;;;;;;;5283505;27;20054;-82
2021/06/26 06:35:03;;;;;;;227.30;206.73;;;;;;;;;;5293186;27;20026;-83
2021/06/26 06:37:31;;;;;;;267.58;243.52;;;;;;;;;;5293033;27;20061;-83
2021/06/26 06:40:00;;;;;;;250.10;227.68;;;;;;;;;;5288223;27;20045;-83
2021/06/26 06:42:28;;;;;;;226.70;207.75;;;;;;;;;;5292892;27;20056;-83
2021/06/26 06:44:57;;;;;;;230.55;212.12;;;;;;;;;;5291739;27;20548;-83
2021/06/26 06:47:25;;;;;;;232.40;213.52;;;;;;;;;;5268094;27;20021;-83
2021/06/26 06:49:54;;;;;;;227.38;209.37;;;;;;;;;;5291983;27;20053;-83
2021/06/26 06:52:22;;;;;;;234.77;214.43;;;;;;;;;;5293450;27;20083;-83
2021/06/26 06:54:51;;;;;;;295.08;270.37;;;;;;;;;;5291945;27;20032;-83
2021/06/26 06:57:25;;;;;;;245.40;226.27;;;;;;;;;;5290548;27;20175;-83
2021/06/26 06:59:54;;;;;;;255.30;235.73;;;;;;;;;;5281865;27;20049;-83
2021/06/26 07:02:23;;;;;;;254.00;232.02;;;;;;;;;;5291167;27;20427;-83
2021/06/26 07:04:52;;;;;;;250.75;231.13;;;;;;;;;;5270818;27;20064;-82
2021/06/26 07:07:20;;;;;;;255.23;235.15;;;;;;;;;;5289871;27;20740;-83
2021/06/26 07:09:49;;;;;;;241.23;221.65;;;;;;;;;;5280410;27;20055;-83
2021/06/26 07:12:17;;;;;;;260.80;239.88;;;;;;;;;;5290342;27;20088;-84
2021/06/26 07:14:46;;;;;;;230.02;210.85;;;;;;;;;;5292538;27;20029;-84
2021/06/26 07:17:14;;;;;;;264.65;243.88;;;;;;;;;;5293615;27;20105;-84
2021/06/26 07:19:43;;;;;;;251.25;231.32;;;;;;;;;;5282538;27;20088;-84
2021/06/26 07:22:11;;;;;;;272.60;249.18;;;;;;;;;;5280448;27;20055;-84
2021/06/26 07:24:39;;;;;;;262.55;238.05;;;;;;;;;;5284773;27;20428;-83
2021/06/26 07:27:09;;;;;;;285.95;260.15;;;;;;;;;;5279131;27;20076;-84
2021/06/26 07:29:37;;;;;;;295.35;269.08;;;;;;;;;;5282431;27;20688;-84
2021/06/26 07:32:06;;;;;;;284.20;261.48;;;;;;;;;;5255623;27;20044;-84
2021/06/26 07:34:35;;;;;;;280.62;258.77;;;;;;;;;;5292029;27;20048;-84
2021/06/26 07:37:03;;;;;;;273.48;251.82;;;;;;;;;;5292207;27;20044;-85
2021/06/26 07:39:32;;;;;;;275.67;253.55;;;;;;;;;;5292072;27;20057;-84
2021/06/26 07:42:01;;;;;;;293.27;269.80;;;;;;;;;;5289672;27;20059;-85
2021/06/26 07:44:29;;;;;;;315.33;287.55;;;;;;;;;;5289545;27;20238;-84
2021/06/26 07:46:57;;;;;;;345.45;314.65;;;;;;;;;;5281794;27;20045;-84
2021/06/26 07:49:26;;;;;;;352.92;324.02;;;;;;;;;;5286792;27;20040;-85
2021/06/26 07:51:55;;;;;;;340.40;311.85;;;;;;;;;;5287122;27;20059;-84
2021/06/26 07:54:23;;;;;;;279.17;256.02;;;;;;;;;;5281745;27;20075;-84
2021/06/26 07:56:52;;;;;;;347.65;324.85;;;;;;;;;;5293130;27;20128;-84
2021/06/26 07:59:20;;;;;;;251.88;238.82;;;;;;;;;;5285410;27;20053;-84
2021/06/26 08:01:49;;;;;;;82.03;77.07;;;;;;;;;;5284683;27;20029;-85
2021/06/26 08:04:19;;;;;;;48.35;43.55;;;;;;;;;;5283586;27;20024;-85
2021/06/26 08:06:48;;;;;;;36.65;34.08;;;;;;;;;;5289204;27;20009;-85
2021/06/26 08:09:17;;;;;;;134.40;124.22;;;;;;;;;;5273275;27;20036;-86
2021/06/26 08:11:45;;;;;;;90.82;84.65;;;;;;;;;;5287066;27;21039;-85
2021/06/26 08:14:14;;;;;;;163.98;153.55;;;;;;;;;;5279970;27;20057;-86
2021/06/26 08:16:43;;;;;;;222.88;206.20;;;;;;;;;;5289348;27;20022;-86
2021/06/26 08:19:12;;;;;;;154.50;143.65;;;;;;;;;;5289057;27;20053;-86
2021/06/26 08:21:41;;;;;;;115.70;108.45;;;;;;;;;;5283475;27;20485;-86
2021/06/26 08:24:10;;;;;;;94.13;87.15;;;;;;;;;;5265040;27;20032;-86
2021/06/26 08:26:56;;;;;;;162.07;149.73;;;;;;;;;;5289889;27;20348;-86
2021/06/26 08:29:24;;;;;;;145.55;135.77;;;;;;;;;;5292452;27;20083;-86
2021/06/26 08:31:53;;;;;;;94.25;88.30;;;;;;;;;;5289484;27;20408;-86
2021/06/26 08:34:21;;;;;;;65.57;61.00;;;;;;;;;;5284854;27;20054;-86
2021/06/26 08:36:51;;;;;;;44.80;42.03;;;;;;;;;;5294531;27;20032;-86
2021/06/26 08:39:20;;;;;;;113.12;105.28;;;;;;;;;;5290651;27;20041;-85
2021/06/26 08:41:49;;;;;;;134.35;125.18;;;;;;;;;;5285788;27;20299;-86
2021/06/26 08:44:19;;;;;;;97.20;91.47;;;;;;;;;;5285650;27;20076;-86
2021/06/26 08:46:49;;;;;;;167.80;156.05;;;;;;;;;;5296285;27;20021;-86
2021/06/26 08:49:19;;;;;;;89.97;82.03;;;;;;;;;;5285750;27;20046;-87
2021/06/26 08:51:48;;;;;;;90.00;83.95;;;;;;;;;;5282585;27;20489;-86
2021/06/26 08:54:20;;;;;;;184.32;170.38;;;;;;;;;;5287245;27;20104;-86
2021/06/26 08:56:49;;;;;;;99.65;92.47;;;;;;;;;;5294594;27;20037;-86
2021/06/26 08:59:18;;;;;;;138.43;127.43;;;;;;;;;;5291043;27;20041;-86
2021/06/26 09:01:48;;;;;;;125.12;115.65;;;;;;;;;;5282822;27;20418;-86
2021/06/26 09:04:18;;;;;;;176.02;159.82;;;;;;;;;;5286899;27;20033;-86
2021/06/26 09:06:53;;;;;;;125.12;117.35;;;;;;;;;;5283522;27;20044;-86
2021/06/26 09:09:33;;;;;;;103.07;95.85;;;;;;;;;;5284225;27;20057;-86
2021/06/26 09:12:05;;;;;;;70.30;65.05;;;;;;;;;;5266110;27;20072;-86
2021/06/26 09:14:35;;;;;;;41.33;36.65;;;;;;;;;;5285806;27;20356;-86
2021/06/26 09:17:04;;;;;;;82.75;77.90;;;;;;;;;;5286769;27;20037;-86
2021/06/26 09:19:33;;;;;;;69.70;65.43;;;;;;;;;;5286834;27;20074;-86
2021/06/26 09:22:09;;;;;;;94.97;89.45;;;;;;;;;;5285224;27;20057;-86
2021/06/26 09:24:41;;;;;;;76.00;71.18;;;;;;;;;;5284534;27;20375;-86
2021/06/26 09:27:15;;;;;;;150.38;137.93;;;;;;;;;;5284624;27;20053;-86
2021/06/26 09:29:43;;;;;;;;;;;;;;;;;;5287439;27;20559;-86
2021/06/26 09:32:12;;;;;;;116.90;106.80;;;;;;;;;;5287591;27;19955;-86
2021/06/26 09:34:44;;;;;;;88.47;79.97;;;;;;;;;;5287926;27;20036;-86
2021/06/26 09:37:13;;;;;;;38.60;36.25;;;;;;;;;;5289061;27;20064;-86
2021/06/26 09:39:43;;;;;;;92.60;86.63;;;;;;;;;;5287166;27;20049;-86
2021/06/26 09:42:19;;;;;;;97.40;90.35;;;;;;;;;;5286675;27;20411;-86
2021/06/26 09:44:49;;;;;;;91.25;84.62;;;;;;;;;;5287472;27;20029;-86
2021/06/26 09:47:28;;;;;;;152.12;141.12;;;;;;;;;;5288126;27;20064;-86
2021/06/26 09:50:26;;;;;;;211.70;192.10;;;;;;;;;;5288820;27;20412;-86
2021/06/26 09:52:57;;;;;;;95.40;89.20;;;;;;;;;;5273671;27;20080;-86
2021/06/26 09:55:26;;;;;;;115.88;107.72;;;;;;;;;;5285064;27;20076;-86
2021/06/26 09:57:56;;;;;;;45.45;42.35;;;;;;;;;;5287857;27;20037;-86
2021/06/26 10:00:26;;;;;;;117.62;107.30;;;;;;;;;;5287942;27;20059;-86
2021/06/26 10:02:56;;;;;;;59.65;56.33;;;;;;;;;;5286431;27;20041;-86
2021/06/26 10:05:25;;;;;;;51.75;48.70;;;;;;;;;;5287119;27;20059;-86
2021/06/26 10:07:54;;;;;;;107.82;99.28;;;;;;;;;;5287041;27;20053;-86
2021/06/26 10:10:23;;;;;;;213.02;195.57;;;;;;;;;;5288668;27;20057;-86
2021/06/26 10:12:53;;;;;;;110.70;101.40;;;;;;;;;;5286116;27;20120;-86
2021/06/26 10:15:22;;;;;;;287.15;262.58;;;;;;;;;;5286816;27;20044;-86
2021/06/26 10:17:51;;;;;;;120.10;110.05;;;;;;;;;;5285946;27;20050;-86
2021/06/26 10:20:23;;;;;;;148.00;136.70;;;;;;;;;;5285571;27;20063;-86
2021/06/26 10:22:59;;;;;;;122.35;112.12;;;;;;;;;;5285448;27;20035;-86
2021/06/26 10:25:29;;;;;;;150.55;138.30;;;;;;;;;;5284958;27;20465;-86
2021/06/26 10:28:05;;;;;;;263.73;239.12;;;;;;;;;;5286114;27;20119;-86
2021/06/26 10:30:35;;;;;;;116.78;106.55;;;;;;;;;;5286844;27;20037;-86
2021/06/26 10:33:06;;;;;;;193.45;177.52;;;;;;;;;;5287094;27;20062;-85
2021/06/26 10:35:35;;;;;;;100.85;93.57;;;;;;;;;;5285877;27;20086;-85
2021/06/26 10:38:11;;;;;;;118.40;109.32;;;;;;;;;;5287240;27;20068;-85
2021/06/26 10:40:42;;;;;;;98.10;90.43;;;;;;;;;;5285044;27;20466;-86
2021/06/26 10:43:13;;;;;;;151.15;138.32;;;;;;;;;;5289619;27;20127;-87
2021/06/26 10:45:42;;;;;;;147.30;133.40;;;;;;;;;;5291692;27;20425;-85
2021/06/26 10:48:18;;;;;;;180.65;165.90;;;;;;;;;;5288934;27;20438;-86
2021/06/26 10:50:48;;;;;;;164.00;149.23;;;;;;;;;;5292916;27;20399;-86
2021/06/26 10:53:42;;;;;;;204.93;187.02;;;;;;;;;;5290045;27;20048;-86
2021/06/26 10:56:11;;;;;;;233.05;215.62;;;;;;;;;;5287682;27;20033;-85
2021/06/26 10:58:41;;;;;;;200.93;184.45;;;;;;;;;;5291947;27;20029;-86
2021/06/26 11:01:23;;;;;;;243.77;223.40;;;;;;;;;;5288099;27;20481;-85
2021/06/26 11:03:53;;;;;;;224.98;206.45;;;;;;;;;;5291221;27;20069;-85
2021/06/26 11:06:25;;;;;;;240.57;221.37;;;;;;;;;;5289114;27;20030;-86
2021/06/26 11:08:58;;;;;;;233.00;215.33;;;;;;;;;;5292531;27;20021;-85
2021/06/26 11:11:37;;;;;;;230.32;212.50;;;;;;;;;;5289656;27;20152;-86
2021/06/26 11:14:08;;;;;;;186.07;172.23;;;;;;;;;;5272444;27;20018;-86
2021/06/26 11:16:36;;;;;;;129.23;120.10;;;;;;;;;;5292264;27;20035;-85
2021/06/26 11:19:05;;;;;;;126.10;118.82;;;;;;;;;;5270658;27;20567;-86
2021/06/26 11:21:41;;;;;;;226.60;209.90;;;;;;;;;;5291758;27;20032;-86
2021/06/26 11:24:10;;;;;;;235.55;218.80;;;;;;;;;;5289154;27;20048;-85
2021/06/26 11:26:53;;;;;;;150.80;140.85;;;;;;;;;;5289097;27;20466;-85
2021/06/26 11:29:43;;;;;;;121.07;114.00;;;;;;;;;;5290939;27;20714;-86
2021/06/26 11:32:21;;;;;;;177.80;163.60;;;;;;;;;;5290127;27;20045;-85
2021/06/26 11:35:10;;;;;;;143.40;133.93;;;;;;;;;;5291710;27;20036;-85
2021/06/26 11:37:46;;;;;;;163.60;150.60;;;;;;;;;;5292839;27;20044;-86
2021/06/26 11:40:15;;;;;;;249.32;226.62;;;;;;;;;;5289755;27;20005;-86
2021/06/26 11:42:52;;;;;;;289.85;266.25;;;;;;;;;;5290207;27;20021;-85
2021/06/26 11:45:23;;;;;;;154.07;143.40;;;;;;;;;;5291682;27;20060;-85
2021/06/26 11:48:05;;;;;;;110.00;102.43;;;;;;;;;;5292889;27;20022;-85
2021/06/26 11:50:34;;;;;;;262.00;241.65;;;;;;;;;;5289777;27;20032;-86
2021/06/26 11:53:05;;;;;;;210.45;193.98;;;;;;;;;;5292933;27;20076;-86
2021/06/26 11:55:37;;;;;;;218.35;201.25;;;;;;;;;;5291345;27;20323;-85
2021/06/26 11:58:06;;;;;;;144.82;134.57;;;;;;;;;;5291861;27;20021;-85
2021/06/26 12:00:34;;;;;;;165.93;153.65;;;;;;;;;;5291927;27;20049;-86
2021/06/26 12:03:14;;;;;;;176.12;161.77;;;;;;;;;;5292596;27;20022;-85
2021/06/26 12:05:43;;;;;;;271.83;249.18;;;;;;;;;;5292141;27;20432;-86
2021/06/26 12:08:27;;;;;;;111.00;102.47;;;;;;;;;;5290101;27;20047;-86
2021/06/26 12:10:56;;;;;;;228.93;211.32;;;;;;;;;;5272115;27;20348;-86
2021/06/26 12:13:25;;;;;;;130.65;120.85;;;;;;;;;;5291605;27;20406;-85
2021/06/26 12:15:53;;;;;;;134.10;120.55;;;;;;;;;;5291044;27;20394;-86
2021/06/26 12:18:22;;;;;;;178.57;165.35;;;;;;;;;;5291646;27;20697;-86
2021/06/26 12:20:51;;;;;;;189.02;175.70;;;;;;;;;;5291092;27;20029;-85
2021/06/26 12:23:19;;;;;;;212.75;193.40;;;;;;;;;;5289897;27;20395;-85
2021/06/26 12:25:48;;;;;;;149.35;138.48;;;;;;;;;;5292663;27;20068;-85
2021/06/26 12:28:17;;;;;;;178.15;164.35;;;;;;;;;;5274900;27;20079;-86
2021/06/26 12:30:46;;;;;;;149.85;139.70;;;;;;;;;;5291413;27;20411;-86
2021/06/26 12:33:19;;;;;;;124.20;116.32;;;;;;;;;;5294280;27;20021;-86
2021/06/26 12:35:47;;;;;;;214.07;198.27;;;;;;;;;;5289697;27;20455;-85
2021/06/26 12:38:16;;;;;;;144.73;132.95;;;;;;;;;;5292799;27;20359;-86
2021/06/26 12:40:45;;;;;;;140.85;131.73;;;;;;;;;;5293915;27;20062;-86
2021/06/26 12:43:14;;;;;;;136.43;126.03;;;;;;;;;;5288183;27;20084;-86
2021/06/26 12:45:53;;;;;;;225.62;208.80;;;;;;;;;;5292252;27;20057;-86
2021/06/26 12:48:27;;;;;;;238.45;220.82;;;;;;;;;;5272272;27;20045;-86
2021/06/26 12:51:12;;;;;;;172.50;160.30;;;;;;;;;;5292933;27;20044;-85
2021/06/26 12:53:48;;;;;;;286.83;263.95;;;;;;;;;;5291893;27;20037;-86
2021/06/26 12:56:18;;;;;;;134.00;124.43;;;;;;;;;;5292204;27;20059;-85
2021/06/26 12:58:58;;;;;;;120.90;112.97;;;;;;;;;;5290573;27;20379;-85
2021/06/26 13:01:40;;;;;;;158.98;147.43;;;;;;;;;;5289133;27;20056;-85
2021/06/26 13:04:09;;;;;;;200.85;186.45;;;;;;;;;;5250009;27;20643;-84
2021/06/26 13:06:52;;;;;;;117.85;110.12;;;;;;;;;;5268549;27;20470;-84
2021/06/26 13:09:31;;;;;;;220.95;202.55;;;;;;;;;;5287660;27;20063;-85
2021/06/26 13:12:14;;;;;;;171.43;159.63;;;;;;;;;;5289780;27;20038;-85
2021/06/26 13:14:44;;;;;;;124.90;116.97;;;;;;;;;;5268096;27;20415;-85
2021/06/26 13:17:13;;;;;;;160.75;149.00;;;;;;;;;;5289207;27;20156;-86
2021/06/26 13:19:42;;;;;;;64.22;59.78;;;;;;;;;;5249956;27;20455;-85
2021/06/26 13:22:31;;;;;;;118.82;107.63;;;;;;;;;;5286749;27;20117;-85
2021/06/26 13:24:59;;;;;;;139.73;129.20;;;;;;;;;;5284521;27;20037;-85
2021/06/26 13:27:28;;;;;;;124.70;115.85;;;;;;;;;;5285870;27;20405;-85
2021/06/26 13:29:57;;;;;;;162.27;149.85;;;;;;;;;;5263484;27;20439;-85
2021/06/26 13:32:25;;;;;;;151.82;139.73;;;;;;;;;;5263917;27;20098;-85
2021/06/26 13:34:53;;;;;;;122.87;114.22;;;;;;;;;;5283563;27;20065;-85
2021/06/26 13:37:22;;;;;;;203.05;188.90;;;;;;;;;;5283994;27;20049;-85
2021/06/26 13:39:50;;;;;;;121.78;112.20;;;;;;;;;;5284712;27;20053;-85
2021/06/26 13:42:19;;;;;;;227.75;210.95;;;;;;;;;;5285112;27;20053;-86
2021/06/26 13:44:48;;;;;;;247.40;226.32;;;;;;;;;;5284079;27;20490;-86
2021/06/26 13:47:16;;;;;;;153.55;143.50;;;;;;;;;;5283354;27;20036;-86
2021/06/26 13:49:45;;;;;;;163.20;148.50;;;;;;;;;;5285886;27;20055;-85
2021/06/26 13:52:14;;;;;;;97.05;90.40;;;;;;;;;;5265384;27;20091;-85
2021/06/26 13:54:42;;;;;;;127.97;119.35;;;;;;;;;;5283379;27;20032;-85
2021/06/26 13:57:10;;;;;;;156.65;142.52;;;;;;;;;;5282935;27;20036;-85
2021/06/26 13:59:39;;;;;;;217.10;200.75;;;;;;;;;;5287591;27;20030;-86
2021/06/26 14:02:08;;;;;;;125.38;117.00;;;;;;;;;;5280843;27;20053;-85
2021/06/26 14:04:37;;;;;;;114.47;106.93;;;;;;;;;;5289620;27;20029;-85
2021/06/26 14:07:05;;;;;;;216.25;200.07;;;;;;;;;;5287666;27;20036;-85
2021/06/26 14:09:33;;;;;;;153.62;143.45;;;;;;;;;;5291308;27;20075;-85
2021/06/26 14:12:02;;;;;;;121.95;113.90;;;;;;;;;;5281824;27;20057;-85
2021/06/26 14:14:31;;;;;;;215.93;201.12;;;;;;;;;;5260309;27;20442;-85
2021/06/26 14:16:59;;;;;;;135.02;125.55;;;;;;;;;;5287119;27;20074;-85
2021/06/26 14:19:28;;;;;;;250.15;232.80;;;;;;;;;;5282131;27;20044;-85
2021/06/26 14:21:56;;;;;;;70.70;66.05;;;;;;;;;;5282053;27;20430;-85
2021/06/26 14:24:25;;;;;;;84.07;78.40;;;;;;;;;;5263476;27;20030;-85
2021/06/26 14:26:53;;;;;;;151.75;141.65;;;;;;;;;;5262180;27;20490;-85
2021/06/26 14:29:22;;;;;;;91.12;85.30;;;;;;;;;;5284680;27;20029;-85
2021/06/26 14:31:50;;;;;;;215.48;200.68;;;;;;;;;;5287180;27;20505;-85
2021/06/26 14:34:19;;;;;;;214.95;199.40;;;;;;;;;;5291141;27;20363;-84
2021/06/26 14:36:48;;;;;;;256.52;238.35;;;;;;;;;;5283966;27;20487;-86
2021/06/26 14:39:16;;;;;;;152.00;142.18;;;;;;;;;;5262750;27;21157;-85
2021/06/26 14:41:45;;;;;;;142.13;132.48;;;;;;;;;;5285867;27;20154;-84
2021/06/26 14:44:13;;;;;;;151.57;141.75;;;;;;;;;;5289238;27;20125;-85
2021/06/26 14:46:42;;;;;;;162.93;151.07;;;;;;;;;;5290582;27;20016;-85
2021/06/26 14:49:11;;;;;;;131.10;122.75;;;;;;;;;;5282291;27;20063;-84
2021/06/26 14:51:39;;;;;;;179.63;167.48;;;;;;;;;;5284620;27;20022;-85
2021/06/26 14:54:07;;;;;;;173.50;162.48;;;;;;;;;;5291060;27;20434;-84
2021/06/26 14:56:36;;;;;;;94.60;88.35;;;;;;;;;;5293557;27;20521;-85
2021/06/26 14:59:05;;;;;;;233.57;217.15;;;;;;;;;;5286352;27;20032;-86
2021/06/26 15:01:33;;;;;;;130.55;121.35;;;;;;;;;;5286517;27;20493;-85
2021/06/26 15:04:02;;;;;;;105.60;98.85;;;;;;;;;;5270042;27;20511;-85
2021/06/26 15:06:30;;;;;;;155.27;146.95;;;;;;;;;;5273956;27;20036;-85
2021/06/26 15:08:59;;;;;;;131.23;122.90;;;;;;;;;;5293132;27;20021;-85
2021/06/26 15:11:28;;;;;;;257.08;240.73;;;;;;;;;;5296301;27;20080;-85
2021/06/26 15:13:56;;;;;;;159.27;148.93;;;;;;;;;;5292991;27;20059;-85
2021/06/26 15:16:25;;;;;;;148.45;139.40;;;;;;;;;;5291466;27;20021;-85
2021/06/26 15:18:54;;;;;;;166.80;156.70;;;;;;;;;;5293447;27;20064;-85
2021/06/26 15:21:23;;;;;;;237.18;222.73;;;;;;;;;;5266029;27;20362;-85
2021/06/26 15:23:52;;;;;;;173.87;162.18;;;;;;;;;;5291491;27;20520;-85
2021/06/26 15:26:20;;;;;;;240.77;225.43;;;;;;;;;;5293507;27;20040;-85
2021/06/26 15:28:48;;;;;;;310.05;287.58;;;;;;;;;;5291402;27;20389;-84
2021/06/26 15:31:17;;;;;;;118.45;111.60;;;;;;;;;;5292579;27;20033;-85
2021/06/26 15:33:46;;;;;;;129.40;121.03;;;;;;;;;;5291185;27;20053;-85
2021/06/26 15:36:14;;;;;;;328.00;305.33;;;;;;;;;;5293203;27;20104;-85
2021/06/26 15:38:43;;;;;;;201.98;189.57;;;;;;;;;;5292346;27;20419;-85
2021/06/26 15:41:12;;;;;;;230.80;216.30;;;;;;;;;;5268944;27;20035;-85
2021/06/26 15:43:40;;;;;;;223.80;210.05;;;;;;;;;;5291816;27;20064;-85
2021/06/26 15:46:09;;;;;;;145.55;135.98;;;;;;;;;;5291356;27;20387;-85
2021/06/26 15:48:37;;;;;;;216.57;201.93;;;;;;;;;;5289133;27;20057;-85
2021/06/26 15:51:06;;;;;;;159.68;150.80;;;;;;;;;;5289658;27;20382;-85
2021/06/26 15:53:34;;;;;;;243.90;228.05;;;;;;;;;;5289605;27;20068;-85
2021/06/26 15:56:03;;;;;;;291.85;271.17;;;;;;;;;;5273844;27;20021;-84
2021/06/26 15:58:32;;;;;;;158.60;147.37;;;;;;;;;;5292506;27;20063;-84
2021/06/26 16:01:00;;;;;;;221.85;207.77;;;;;;;;;;5286918;27;20387;-85
2021/06/26 16:03:29;;;;;;;151.00;142.02;;;;;;;;;;5290870;27;20161;-84
2021/06/26 16:05:57;;;;;;;162.57;152.23;;;;;;;;;;5287832;27;20030;-85
2021/06/26 16:08:26;;;;;;;251.88;235.63;;;;;;;;;;5289175;27;20048;-84
2021/06/26 16:11:00;;;;;;;77.62;73.43;;;;;;;;;;5281614;27;20352;-85